sensor_id;sensor_type;location;lat;lon;timestamp;pressure;altitude;pressure_sealevel;temperature;humidity
68758;BME280;55747;51.998;4.466;2022-08-01T00:01:45;77615.44;;;-144.48;84.30
68758;BME280;55747;51.998;4.466;2022-08-01T00:04:10;77615.44;;;-144.48;84.55
68758;BME280;55747;51.998;4.466;2022-08-01T00:06:35;77619.59;;;-144.48;84.69
68758;BME280;55747;51.998;4.466;2022-08-01T00:09:01;77623.75;;;-144.48;85.16
68758;BME280;55747;51.998;4.466;2022-08-01T00:11:26;77617.53;;;-144.48;85.12
68758;BME280;55747;51.998;4.466;2022-08-01T00:13:52;77617.53;;;-144.48;85.12
68758;BME280;55747;51.998;4.466;2022-08-01T00:16:17;77621.69;;;-144.48;85.16
68758;BME280;55747;51.998;4.466;2022-08-01T00:18:43;77617.53;;;-144.48;85.25
68758;BME280;55747;51.998;4.466;2022-08-01T00:21:08;77621.69;;;-144.48;85.31
68758;BME280;55747;51.998;4.466;2022-08-01T00:23:33;77621.69;;;-144.48;85.38
68758;BME280;55747;51.998;4.466;2022-08-01T00:25:59;77621.69;;;-144.48;85.17
68758;BME280;55747;51.998;4.466;2022-08-01T00:28:24;77623.75;;;-144.48;85.43
68758;BME280;55747;51.998;4.466;2022-08-01T00:30:49;77625.84;;;-144.48;85.51
68758;BME280;55747;51.998;4.466;2022-08-01T00:33:15;77621.69;;;-144.48;85.57
68758;BME280;55747;51.998;4.466;2022-08-01T00:35:40;77621.69;;;-144.48;85.52
68758;BME280;55747;51.998;4.466;2022-08-01T00:38:05;77621.69;;;-144.48;85.68
68758;BME280;55747;51.998;4.466;2022-08-01T00:40:30;77627.91;;;-144.48;85.64
68758;BME280;55747;51.998;4.466;2022-08-01T00:42:56;77621.69;;;-144.48;85.74
68758;BME280;55747;51.998;4.466;2022-08-01T00:45:21;77619.59;;;-144.48;85.66
68758;BME280;55747;51.998;4.466;2022-08-01T00:47:46;77617.53;;;-144.48;85.54
68758;BME280;55747;51.998;4.466;2022-08-01T00:50:12;77615.44;;;-144.48;85.62
68758;BME280;55747;51.998;4.466;2022-08-01T00:52:39;77623.75;;;-144.48;85.44
68758;BME280;55747;51.998;4.466;2022-08-01T00:55:04;77632.06;;;-144.48;85.41
68758;BME280;55747;51.998;4.466;2022-08-01T00:57:30;77634.16;;;-144.48;85.26
68758;BME280;55747;51.998;4.466;2022-08-01T00:59:55;77627.91;;;-144.48;85.14
68758;BME280;55747;51.998;4.466;2022-08-01T01:02:21;77636.22;;;-144.48;85.17
68758;BME280;55747;51.998;4.466;2022-08-01T01:04:46;77634.16;;;-144.48;85.19
68758;BME280;55747;51.998;4.466;2022-08-01T01:09:52;77638.31;;;-144.48;85.14
68758;BME280;55747;51.998;4.466;2022-08-01T01:12:36;77642.47;;;-144.48;85.30
68758;BME280;55747;51.998;4.466;2022-08-01T01:15:15;77644.56;;;-144.48;85.45
68758;BME280;55747;51.998;4.466;2022-08-01T01:18:01;77642.47;;;-144.48;85.87
68758;BME280;55747;51.998;4.466;2022-08-01T01:20:33;77654.94;;;-144.48;86.20
68758;BME280;55747;51.998;4.466;2022-08-01T01:23:28;77659.09;;;-144.48;86.11
68758;BME280;55747;51.998;4.466;2022-08-01T01:29:05;77659.09;;;-144.48;86.86
68758;BME280;55747;51.998;4.466;2022-08-01T01:31:39;77661.19;;;-144.48;87.09
68758;BME280;55747;51.998;4.466;2022-08-01T01:34:07;77661.19;;;-144.48;87.18
68758;BME280;55747;51.998;4.466;2022-08-01T01:36:35;77661.19;;;-144.48;87.19
68758;BME280;55747;51.998;4.466;2022-08-01T01:39:02;77659.09;;;-144.48;87.29
68758;BME280;55747;51.998;4.466;2022-08-01T01:41:28;77665.34;;;-144.48;87.37
68758;BME280;55747;51.998;4.466;2022-08-01T01:43:56;77665.34;;;-144.48;87.44
68758;BME280;55747;51.998;4.466;2022-08-01T01:46:24;77669.50;;;-144.48;87.45
68758;BME280;55747;51.998;4.466;2022-08-01T01:48:53;77665.34;;;-144.48;87.56
68758;BME280;55747;51.998;4.466;2022-08-01T01:51:22;77663.25;;;-144.48;87.35
68758;BME280;55747;51.998;4.466;2022-08-01T01:53:49;77669.50;;;-144.48;87.35
68758;BME280;55747;51.998;4.466;2022-08-01T01:56:18;77673.66;;;-144.48;87.37
68758;BME280;55747;51.998;4.466;2022-08-01T01:58:45;77669.50;;;-144.48;87.51
68758;BME280;55747;51.998;4.466;2022-08-01T02:01:14;77679.88;;;-144.48;87.32
68758;BME280;55747;51.998;4.466;2022-08-01T02:03:42;77684.03;;;-144.48;87.50
68758;BME280;55747;51.998;4.466;2022-08-01T02:06:08;77684.03;;;-144.48;87.45
68758;BME280;55747;51.998;4.466;2022-08-01T02:08:34;77681.97;;;-144.48;87.54
68758;BME280;55747;51.998;4.466;2022-08-01T02:11:01;77686.13;;;-144.48;87.47
68758;BME280;55747;51.998;4.466;2022-08-01T02:13:43;77694.44;;;-144.48;87.41
68758;BME280;55747;51.998;4.466;2022-08-01T02:16:09;77698.59;;;-144.48;87.66
68758;BME280;55747;51.998;4.466;2022-08-01T02:18:37;77688.19;;;-144.48;87.75
68758;BME280;55747;51.998;4.466;2022-08-01T02:21:05;77686.13;;;-144.48;87.99
68758;BME280;55747;51.998;4.466;2022-08-01T02:23:34;77692.34;;;-144.48;87.94
68758;BME280;55747;51.998;4.466;2022-08-01T02:26:02;77688.19;;;-144.48;88.17
68758;BME280;55747;51.998;4.466;2022-08-01T02:28:33;77694.44;;;-144.48;88.15
68758;BME280;55747;51.998;4.466;2022-08-01T02:31:06;77696.50;;;-144.48;88.22
68758;BME280;55747;51.998;4.466;2022-08-01T02:33:39;77692.34;;;-144.48;88.53
68758;BME280;55747;51.998;4.466;2022-08-01T02:36:06;77692.34;;;-144.48;88.35
68758;BME280;55747;51.998;4.466;2022-08-01T02:38:36;77692.34;;;-144.48;88.29
68758;BME280;55747;51.998;4.466;2022-08-01T02:41:09;77690.28;;;-144.48;88.37
68758;BME280;55747;51.998;4.466;2022-08-01T02:43:37;77694.44;;;-144.48;88.42
68758;BME280;55747;51.998;4.466;2022-08-01T02:46:06;77694.44;;;-144.48;88.28
68758;BME280;55747;51.998;4.466;2022-08-01T02:48:35;77686.13;;;-144.48;88.38
68758;BME280;55747;51.998;4.466;2022-08-01T02:51:02;77684.03;;;-144.48;88.18
68758;BME280;55747;51.998;4.466;2022-08-01T02:53:31;77686.13;;;-144.48;88.05
68758;BME280;55747;51.998;4.466;2022-08-01T02:55:58;77686.13;;;-144.48;87.97
68758;BME280;55747;51.998;4.466;2022-08-01T02:58:24;77692.34;;;-144.48;88.08
68758;BME280;55747;51.998;4.466;2022-08-01T03:00:50;77692.34;;;-144.48;87.97
68758;BME280;55747;51.998;4.466;2022-08-01T03:03:16;77696.50;;;-144.48;87.86
68758;BME280;55747;51.998;4.466;2022-08-01T03:05:43;77694.44;;;-144.48;87.99
68758;BME280;55747;51.998;4.466;2022-08-01T03:08:10;77696.50;;;-144.48;87.83
68758;BME280;55747;51.998;4.466;2022-08-01T03:10:38;77698.59;;;-144.48;88.02
68758;BME280;55747;51.998;4.466;2022-08-01T03:13:06;77702.75;;;-144.48;88.06
68758;BME280;55747;51.998;4.466;2022-08-01T03:15:35;77702.75;;;-144.48;87.67
68758;BME280;55747;51.998;4.466;2022-08-01T03:18:02;77706.91;;;-144.48;87.53
68758;BME280;55747;51.998;4.466;2022-08-01T03:20:34;77723.53;;;-144.48;87.01
68758;BME280;55747;51.998;4.466;2022-08-01T03:23:02;77725.59;;;-144.48;87.08
68758;BME280;55747;51.998;4.466;2022-08-01T03:25:29;77725.59;;;-144.48;86.86
68758;BME280;55747;51.998;4.466;2022-08-01T03:27:58;77715.22;;;-144.48;86.75
68758;BME280;55747;51.998;4.466;2022-08-01T03:30:27;77711.06;;;-144.48;86.65
68758;BME280;55747;51.998;4.466;2022-08-01T03:32:53;77713.13;;;-144.48;86.61
68758;BME280;55747;51.998;4.466;2022-08-01T03:35:20;77721.44;;;-144.48;86.66
68758;BME280;55747;51.998;4.466;2022-08-01T03:37:51;77719.38;;;-144.48;86.38
68758;BME280;55747;51.998;4.466;2022-08-01T03:40:31;77713.13;;;-144.48;86.02
68758;BME280;55747;51.998;4.466;2022-08-01T03:43:05;77715.22;;;-144.48;85.33
68758;BME280;55747;51.998;4.466;2022-08-01T03:45:35;77702.75;;;-144.48;85.02
68758;BME280;55747;51.998;4.466;2022-08-01T03:48:05;77708.97;;;-144.48;84.92
68758;BME280;55747;51.998;4.466;2022-08-01T03:50:32;77708.97;;;-144.48;84.76
68758;BME280;55747;51.998;4.466;2022-08-01T03:53:01;77706.91;;;-144.48;84.50
68758;BME280;55747;51.998;4.466;2022-08-01T03:55:28;77702.75;;;-144.48;84.57
68758;BME280;55747;51.998;4.466;2022-08-01T03:57:55;77700.66;;;-144.48;84.35
68758;BME280;55747;51.998;4.466;2022-08-01T04:00:22;77696.50;;;-144.48;84.56
68758;BME280;55747;51.998;4.466;2022-08-01T04:02:48;77702.75;;;-144.48;84.52
68758;BME280;55747;51.998;4.466;2022-08-01T04:05:15;77704.81;;;-144.48;84.66
68758;BME280;55747;51.998;4.466;2022-08-01T04:07:46;77704.81;;;-144.48;84.94
68758;BME280;55747;51.998;4.466;2022-08-01T04:10:12;77704.81;;;-144.48;85.03
68758;BME280;55747;51.998;4.466;2022-08-01T04:12:37;77711.06;;;-144.48;85.27
68758;BME280;55747;51.998;4.466;2022-08-01T04:15:03;77708.97;;;-144.48;85.69
68758;BME280;55747;51.998;4.466;2022-08-01T04:17:29;77708.97;;;-144.48;85.59
68758;BME280;55747;51.998;4.466;2022-08-01T04:19:54;77711.06;;;-144.48;85.65
68758;BME280;55747;51.998;4.466;2022-08-01T04:22:20;77711.06;;;-144.48;85.43
68758;BME280;55747;51.998;4.466;2022-08-01T04:24:49;77713.13;;;-144.48;85.41
68758;BME280;55747;51.998;4.466;2022-08-01T04:27:21;77713.13;;;-144.48;85.51
68758;BME280;55747;51.998;4.466;2022-08-01T04:29:48;77711.06;;;-144.48;85.50
68758;BME280;55747;51.998;4.466;2022-08-01T04:32:16;77711.06;;;-144.48;85.54
68758;BME280;55747;51.998;4.466;2022-08-01T04:34:44;77704.81;;;-144.48;85.47
68758;BME280;55747;51.998;4.466;2022-08-01T04:37:12;77706.91;;;-144.48;85.37
68758;BME280;55747;51.998;4.466;2022-08-01T04:39:41;77706.91;;;-144.48;85.41
68758;BME280;55747;51.998;4.466;2022-08-01T04:42:08;77698.59;;;-144.48;85.49
68758;BME280;55747;51.998;4.466;2022-08-01T04:44:36;77698.59;;;-144.48;85.44
68758;BME280;55747;51.998;4.466;2022-08-01T04:47:03;77688.19;;;-144.48;85.38
68758;BME280;55747;51.998;4.466;2022-08-01T04:49:31;77679.88;;;-144.48;85.31
68758;BME280;55747;51.998;4.466;2022-08-01T04:51:56;77669.50;;;-144.48;85.13
68758;BME280;55747;51.998;4.466;2022-08-01T04:54:32;77623.75;;;-144.48;84.90
68758;BME280;55747;51.998;4.466;2022-08-01T04:56:59;77596.75;;;-144.48;83.29
68758;BME280;55747;51.998;4.466;2022-08-01T04:59:26;77515.69;;;-144.48;81.57
68758;BME280;55747;51.998;4.466;2022-08-01T05:04:33;77440.88;;;-144.48;75.21
68758;BME280;55747;51.998;4.466;2022-08-01T05:06:58;77465.81;;;-144.48;73.95
68758;BME280;55747;51.998;4.466;2022-08-01T05:09:23;77490.75;;;-144.48;74.61
68758;BME280;55747;51.998;4.466;2022-08-01T05:11:49;77528.16;;;-144.48;75.87
68758;BME280;55747;51.998;4.466;2022-08-01T05:14:14;77555.19;;;-144.48;76.59
68758;BME280;55747;51.998;4.466;2022-08-01T05:16:39;77565.56;;;-144.48;77.81
68758;BME280;55747;51.998;4.466;2022-08-01T05:19:05;77580.13;;;-144.48;78.61
68758;BME280;55747;51.998;4.466;2022-08-01T05:21:30;77590.50;;;-144.48;78.90
68758;BME280;55747;51.998;4.466;2022-08-01T05:23:55;77596.75;;;-144.48;78.99
68758;BME280;55747;51.998;4.466;2022-08-01T05:26:21;77607.13;;;-144.48;79.65
68758;BME280;55747;51.998;4.466;2022-08-01T05:28:46;77613.38;;;-144.48;79.97
68758;BME280;55747;51.998;4.466;2022-08-01T05:31:11;77605.06;;;-144.48;80.24
68758;BME280;55747;51.998;4.466;2022-08-01T05:33:37;77586.34;;;-144.48;80.54
68758;BME280;55747;51.998;4.466;2022-08-01T05:36:02;77582.19;;;-144.48;79.89
68758;BME280;55747;51.998;4.466;2022-08-01T05:38:28;77582.19;;;-144.48;79.70
68758;BME280;55747;51.998;4.466;2022-08-01T05:40:53;77578.03;;;-144.48;79.45
68758;BME280;55747;51.998;4.466;2022-08-01T05:43:18;77575.97;;;-144.48;79.13
68758;BME280;55747;51.998;4.466;2022-08-01T05:45:44;77584.28;;;-144.48;79.40
68758;BME280;55747;51.998;4.466;2022-08-01T05:48:11;77590.50;;;-144.48;79.45
68758;BME280;55747;51.998;4.466;2022-08-01T05:50:36;77596.75;;;-144.48;79.46
68758;BME280;55747;51.998;4.466;2022-08-01T05:53:01;77617.53;;;-144.48;79.32
68758;BME280;55747;51.998;4.466;2022-08-01T05:55:27;77636.22;;;-144.48;79.81
68758;BME280;55747;51.998;4.466;2022-08-01T05:57:52;77677.81;;;-144.48;81.14
68758;BME280;55747;51.998;4.466;2022-08-01T06:00:17;77700.66;;;-144.48;82.19
68758;BME280;55747;51.998;4.466;2022-08-01T06:02:43;77711.06;;;-144.48;83.64
68758;BME280;55747;51.998;4.466;2022-08-01T06:05:09;77725.59;;;-144.48;85.22
68758;BME280;55747;51.998;4.466;2022-08-01T06:07:34;77744.31;;;-144.48;86.03
68758;BME280;55747;51.998;4.466;2022-08-01T06:10:00;77742.25;;;-144.48;86.56
68758;BME280;55747;51.998;4.466;2022-08-01T06:12:25;77740.16;;;-144.48;87.00
68758;BME280;55747;51.998;4.466;2022-08-01T06:14:50;77731.84;;;-144.48;87.52
68758;BME280;55747;51.998;4.466;2022-08-01T06:17:15;77725.59;;;-144.48;87.80
68758;BME280;55747;51.998;4.466;2022-08-01T06:19:41;77711.06;;;-144.48;88.14
68758;BME280;55747;51.998;4.466;2022-08-01T06:22:06;77715.22;;;-144.48;88.10
68758;BME280;55747;51.998;4.466;2022-08-01T06:24:31;77715.22;;;-144.48;88.08
68758;BME280;55747;51.998;4.466;2022-08-01T06:26:57;77719.38;;;-144.48;88.01
68758;BME280;55747;51.998;4.466;2022-08-01T06:29:22;77736.00;;;-144.48;87.34
68758;BME280;55747;51.998;4.466;2022-08-01T06:31:47;77736.00;;;-144.48;87.24
68758;BME280;55747;51.998;4.466;2022-08-01T06:34:13;77738.09;;;-144.48;87.02
68758;BME280;55747;51.998;4.466;2022-08-01T06:36:40;77738.09;;;-144.48;86.81
68758;BME280;55747;51.998;4.466;2022-08-01T06:39:05;77736.00;;;-144.48;86.71
68758;BME280;55747;51.998;4.466;2022-08-01T06:41:30;77725.59;;;-144.48;87.18
68758;BME280;55747;51.998;4.466;2022-08-01T06:43:56;77725.59;;;-144.48;86.97
68758;BME280;55747;51.998;4.466;2022-08-01T06:46:21;77725.59;;;-144.48;86.67
68758;BME280;55747;51.998;4.466;2022-08-01T06:48:46;77719.38;;;-144.48;86.79
68758;BME280;55747;51.998;4.466;2022-08-01T06:51:12;77715.22;;;-144.48;86.94
68758;BME280;55747;51.998;4.466;2022-08-01T06:53:41;77704.81;;;-144.48;86.88
68758;BME280;55747;51.998;4.466;2022-08-01T06:56:07;77692.34;;;-144.48;87.04
68758;BME280;55747;51.998;4.466;2022-08-01T06:58:33;77679.88;;;-144.48;87.01
68758;BME280;55747;51.998;4.466;2022-08-01T07:01:00;77673.66;;;-144.48;86.76
68758;BME280;55747;51.998;4.466;2022-08-01T07:03:25;77673.66;;;-144.48;86.45
68758;BME280;55747;51.998;4.466;2022-08-01T07:05:51;77675.72;;;-144.48;86.20
68758;BME280;55747;51.998;4.466;2022-08-01T07:08:16;77673.66;;;-144.48;86.05
68758;BME280;55747;51.998;4.466;2022-08-01T07:10:41;77673.66;;;-144.48;85.81
68758;BME280;55747;51.998;4.466;2022-08-01T07:13:08;77652.88;;;-144.48;85.59
68758;BME280;55747;51.998;4.466;2022-08-01T07:15:33;77648.72;;;-144.48;85.11
68758;BME280;55747;51.998;4.466;2022-08-01T07:17:58;77642.47;;;-144.48;83.30
68758;BME280;55747;51.998;4.466;2022-08-01T07:20:26;77609.22;;;-144.48;82.54
68758;BME280;55747;51.998;4.466;2022-08-01T07:22:51;77600.91;;;-144.48;81.44
68758;BME280;55747;51.998;4.466;2022-08-01T07:25:17;77598.81;;;-144.48;80.32
68758;BME280;55747;51.998;4.466;2022-08-01T07:27:42;77598.81;;;-144.48;79.85
68758;BME280;55747;51.998;4.466;2022-08-01T07:30:08;77617.53;;;-144.48;79.18
68758;BME280;55747;51.998;4.466;2022-08-01T07:32:34;77621.69;;;-144.48;79.21
68758;BME280;55747;51.998;4.466;2022-08-01T07:35:00;77619.59;;;-144.48;78.57
68758;BME280;55747;51.998;4.466;2022-08-01T07:37:25;77607.13;;;-144.48;77.91
68758;BME280;55747;51.998;4.466;2022-08-01T07:39:51;77615.44;;;-144.48;76.27
68758;BME280;55747;51.998;4.466;2022-08-01T07:42:16;77602.97;;;-144.48;75.58
68758;BME280;55747;51.998;4.466;2022-08-01T07:44:42;77598.81;;;-144.48;75.44
68758;BME280;55747;51.998;4.466;2022-08-01T07:47:07;77598.81;;;-144.48;75.59
68758;BME280;55747;51.998;4.466;2022-08-01T07:49:33;77619.59;;;-144.48;74.31
68758;BME280;55747;51.998;4.466;2022-08-01T07:51:58;77617.53;;;-144.48;74.36
68758;BME280;55747;51.998;4.466;2022-08-01T07:54:24;77563.50;;;-144.48;73.54
68758;BME280;55747;51.998;4.466;2022-08-01T07:56:50;77524.00;;;-144.48;70.42
68758;BME280;55747;51.998;4.466;2022-08-01T07:59:16;77380.59;;;-144.48;66.84
68758;BME280;55747;51.998;4.466;2022-08-01T08:01:41;77295.38;;;-144.48;63.71
68758;BME280;55747;51.998;4.466;2022-08-01T08:04:06;77251.75;;;-144.48;60.95
68758;BME280;55747;51.998;4.466;2022-08-01T08:06:32;77218.50;;;-144.48;60.37
68758;BME280;55747;51.998;4.466;2022-08-01T08:08:57;77114.59;;;-144.48;59.05
68758;BME280;55747;51.998;4.466;2022-08-01T08:11:22;76977.44;;;-144.48;53.31
68758;BME280;55747;51.998;4.466;2022-08-01T08:13:48;76888.06;;;-144.48;51.96
68758;BME280;55747;51.998;4.466;2022-08-01T08:16:13;76964.97;;;-144.48;52.05
68758;BME280;55747;51.998;4.466;2022-08-01T08:18:39;77079.25;;;-144.48;53.65
68758;BME280;55747;51.998;4.466;2022-08-01T08:21:04;77154.06;;;-144.48;55.13
68758;BME280;55747;51.998;4.466;2022-08-01T08:23:29;77218.50;;;-144.48;55.86
68758;BME280;55747;51.998;4.466;2022-08-01T08:26:13;77305.78;;;-144.48;58.08
68758;BME280;55747;51.998;4.466;2022-08-01T08:28:39;77260.06;;;-144.48;59.26
68758;BME280;55747;51.998;4.466;2022-08-01T08:31:04;77120.81;;;-144.48;55.94
68758;BME280;55747;51.998;4.466;2022-08-01T08:33:29;77068.88;;;-144.48;54.90
68758;BME280;55747;51.998;4.466;2022-08-01T08:35:55;76956.66;;;-144.48;50.84
68758;BME280;55747;51.998;4.466;2022-08-01T08:38:20;77002.38;;;-144.48;50.26
68758;BME280;55747;51.998;4.466;2022-08-01T08:40:45;77106.28;;;-144.48;53.21
68758;BME280;55747;51.998;4.466;2022-08-01T08:43:11;77162.38;;;-144.48;53.75
68758;BME280;55747;51.998;4.466;2022-08-01T08:45:37;77037.69;;;-144.48;51.50
68758;BME280;55747;51.998;4.466;2022-08-01T08:48:05;76867.28;;;-144.48;48.38
68758;BME280;55747;51.998;4.466;2022-08-01T08:50:31;76753.00;;;-144.48;44.64
68758;BME280;55747;51.998;4.466;2022-08-01T08:52:58;76777.94;;;-144.48;44.11
68758;BME280;55747;51.998;4.466;2022-08-01T08:55:26;76917.16;;;-144.48;46.20
68758;BME280;55747;51.998;4.466;2022-08-01T08:57:52;76996.13;;;-144.48;48.07
68758;BME280;55747;51.998;4.466;2022-08-01T09:00:19;76989.91;;;-144.48;48.67
68758;BME280;55747;51.998;4.466;2022-08-01T09:02:46;77077.19;;;-144.48;49.01
68758;BME280;55747;51.998;4.466;2022-08-01T09:05:13;77050.16;;;-144.48;49.29
68758;BME280;55747;51.998;4.466;2022-08-01T09:07:39;77127.06;;;-144.48;50.18
68758;BME280;55747;51.998;4.466;2022-08-01T09:10:05;77081.34;;;-144.48;49.16
68758;BME280;55747;51.998;4.466;2022-08-01T09:12:31;77149.91;;;-144.48;50.62
68758;BME280;55747;51.998;4.466;2022-08-01T09:14:56;77114.59;;;-144.48;49.66
68758;BME280;55747;51.998;4.466;2022-08-01T09:17:21;77187.31;;;-144.48;51.36
68758;BME280;55747;51.998;4.466;2022-08-01T09:19:50;77276.69;;;-144.48;53.01
68758;BME280;55747;51.998;4.466;2022-08-01T09:22:18;77312.00;;;-144.48;54.25
68758;BME280;55747;51.998;4.466;2022-08-01T09:25:06;77303.69;;;-144.48;54.24
68758;BME280;55747;51.998;4.466;2022-08-01T09:27:33;77324.47;;;-144.48;54.99
68758;BME280;55747;51.998;4.466;2022-08-01T09:30:14;77285.00;;;-144.48;54.10
68758;BME280;55747;51.998;4.466;2022-08-01T09:37:49;76960.81;;;-144.48;45.99
68758;BME280;55747;51.998;4.466;2022-08-01T09:40:14;77066.78;;;-144.48;47.94
68758;BME280;55747;51.998;4.466;2022-08-01T09:42:40;76948.34;;;-144.48;46.38
68758;BME280;55747;51.998;4.466;2022-08-01T09:45:05;76989.91;;;-144.48;46.29
68758;BME280;55747;51.998;4.466;2022-08-01T09:47:38;77000.28;;;-144.48;45.09
68758;BME280;55747;51.998;4.466;2022-08-01T09:50:04;76913.00;;;-144.48;44.08
68758;BME280;55747;51.998;4.466;2022-08-01T09:52:30;76829.88;;;-144.48;42.93
68758;BME280;55747;51.998;4.466;2022-08-01T09:57:22;76698.97;;;-144.48;39.58
68758;BME280;55747;51.998;4.466;2022-08-01T09:59:49;76636.63;;;-144.48;38.80
68758;BME280;55747;51.998;4.466;2022-08-01T10:02:36;76723.91;;;-144.48;40.20
68758;BME280;55747;51.998;4.466;2022-08-01T10:05:04;76676.13;;;-144.48;40.31
68758;BME280;55747;51.998;4.466;2022-08-01T10:07:30;76665.72;;;-144.48;40.81
68758;BME280;55747;51.998;4.466;2022-08-01T10:10:10;76763.38;;;-144.48;41.89
68758;BME280;55747;51.998;4.466;2022-08-01T10:12:36;76767.53;;;-144.48;42.14
68758;BME280;55747;51.998;4.466;2022-08-01T10:15:03;76773.78;;;-144.48;41.39
68758;BME280;55747;51.998;4.466;2022-08-01T10:17:29;76763.38;;;-144.48;41.78
68758;BME280;55747;51.998;4.466;2022-08-01T10:19:55;76723.91;;;-144.48;42.34
68758;BME280;55747;51.998;4.466;2022-08-01T10:22:23;76696.91;;;-144.48;39.39
68758;BME280;55747;51.998;4.466;2022-08-01T10:24:50;76836.13;;;-144.48;41.99
68758;BME280;55747;51.998;4.466;2022-08-01T10:27:18;76898.47;;;-144.48;42.31
68758;BME280;55747;51.998;4.466;2022-08-01T10:29:54;77012.75;;;-144.48;44.69
68758;BME280;55747;51.998;4.466;2022-08-01T10:32:20;76975.34;;;-144.48;44.21
68758;BME280;55747;51.998;4.466;2022-08-01T10:34:46;77006.53;;;-144.48;44.83
68758;BME280;55747;51.998;4.466;2022-08-01T10:37:14;76967.03;;;-144.48;44.08
68758;BME280;55747;51.998;4.466;2022-08-01T10:39:39;76842.34;;;-144.48;44.01
68758;BME280;55747;51.998;4.466;2022-08-01T10:42:05;76665.72;;;-144.48;41.19
68758;BME280;55747;51.998;4.466;2022-08-01T10:44:31;76595.06;;;-144.48;39.99
68758;BME280;55747;51.998;4.466;2022-08-01T10:47:09;76665.72;;;-144.48;37.21
68758;BME280;55747;51.998;4.466;2022-08-01T10:49:41;76838.19;;;-144.48;40.80
68758;BME280;55747;51.998;4.466;2022-08-01T10:52:14;76871.44;;;-144.48;41.36
68758;BME280;55747;51.998;4.466;2022-08-01T10:54:39;76815.34;;;-144.48;41.35
68758;BME280;55747;51.998;4.466;2022-08-01T10:57:06;76846.50;;;-144.48;40.97
68758;BME280;55747;51.998;4.466;2022-08-01T10:59:32;76892.22;;;-144.48;41.82
68758;BME280;55747;51.998;4.466;2022-08-01T11:02:00;76850.66;;;-144.48;40.41
68758;BME280;55747;51.998;4.466;2022-08-01T11:07:18;76595.06;;;-144.48;37.50
68758;BME280;55747;51.998;4.466;2022-08-01T11:09:46;76424.69;;;-144.48;36.20
68758;BME280;55747;51.998;4.466;2022-08-01T11:12:16;76264.72;;;-144.48;34.15
68758;BME280;55747;51.998;4.466;2022-08-01T11:20:16;76410.16;;;-144.48;32.38
68758;BME280;55747;51.998;4.466;2022-08-01T11:25:23;76293.78;;;-144.48;31.43
68758;BME280;55747;51.998;4.466;2022-08-01T11:27:48;76503.66;;;-144.48;33.80
68758;BME280;55747;51.998;4.466;2022-08-01T11:32:56;76487.03;;;-144.48;33.24
68758;BME280;55747;51.998;4.466;2022-08-01T11:35:23;76674.03;;;-144.48;34.30
68758;BME280;55747;51.998;4.466;2022-08-01T11:37:50;76734.31;;;-144.48;34.83
68758;BME280;55747;51.998;4.466;2022-08-01T11:40:28;76460.03;;;-144.48;34.74
68758;BME280;55747;51.998;4.466;2022-08-01T11:45:54;76505.72;;;-144.48;31.58
68758;BME280;55747;51.998;4.466;2022-08-01T11:48:22;76626.25;;;-144.48;34.00
68758;BME280;55747;51.998;4.466;2022-08-01T11:50:50;76748.84;;;-144.48;35.70
68758;BME280;55747;51.998;4.466;2022-08-01T11:53:15;76601.31;;;-144.48;34.45
68758;BME280;55747;51.998;4.466;2022-08-01T11:55:49;76518.19;;;-144.48;33.14
68758;BME280;55747;51.998;4.466;2022-08-01T11:58:17;76624.16;;;-144.48;33.47
68758;BME280;55747;51.998;4.466;2022-08-01T12:00:56;76638.72;;;-144.48;33.88
68758;BME280;55747;51.998;4.466;2022-08-01T12:05:53;76609.63;;;-144.48;32.18
68758;BME280;55747;51.998;4.466;2022-08-01T12:08:29;76628.31;;;-144.48;32.47
68758;BME280;55747;51.998;4.466;2022-08-01T12:10:56;76580.53;;;-144.48;31.42
68758;BME280;55747;51.998;4.466;2022-08-01T12:13:21;76574.31;;;-144.48;32.36
68758;BME280;55747;51.998;4.466;2022-08-01T12:15:48;76563.91;;;-144.48;32.63
68758;BME280;55747;51.998;4.466;2022-08-01T12:18:15;76499.50;;;-144.48;32.36
68758;BME280;55747;51.998;4.466;2022-08-01T12:20:43;76422.63;;;-144.48;32.12
68758;BME280;55747;51.998;4.466;2022-08-01T12:23:11;76306.25;;;-144.48;31.73
68758;BME280;55747;51.998;4.466;2022-08-01T12:25:37;76441.31;;;-144.48;31.99
68758;BME280;55747;51.998;4.466;2022-08-01T12:28:07;76590.94;;;-144.48;32.21
68758;BME280;55747;51.998;4.466;2022-08-01T12:30:34;76667.81;;;-144.48;32.87
68758;BME280;55747;51.998;4.466;2022-08-01T12:33:02;76657.41;;;-144.48;34.44
68758;BME280;55747;51.998;4.466;2022-08-01T12:35:28;76676.13;;;-144.48;34.86
68758;BME280;55747;51.998;4.466;2022-08-01T12:37:56;76674.03;;;-144.48;33.41
68758;BME280;55747;51.998;4.466;2022-08-01T12:42:55;76605.47;;;-144.48;33.19
68758;BME280;55747;51.998;4.466;2022-08-01T12:45:36;76507.81;;;-144.48;32.89
68758;BME280;55747;51.998;4.466;2022-08-01T12:48:07;76605.47;;;-144.48;31.60
68758;BME280;55747;51.998;4.466;2022-08-01T12:50:33;76669.88;;;-144.48;32.11
68758;BME280;55747;51.998;4.466;2022-08-01T12:52:59;76574.31;;;-144.48;32.70
68758;BME280;55747;51.998;4.466;2022-08-01T12:55:26;76439.25;;;-144.48;31.30
68758;BME280;55747;51.998;4.466;2022-08-01T12:58:18;76414.31;;;-144.48;31.67
68758;BME280;55747;51.998;4.466;2022-08-01T13:00:46;76364.44;;;-144.48;31.48
68758;BME280;55747;51.998;4.466;2022-08-01T13:03:17;76333.28;;;-144.48;30.09
68758;BME280;55747;51.998;4.466;2022-08-01T13:05:50;76435.09;;;-144.48;32.44
68758;BME280;55747;51.998;4.466;2022-08-01T13:08:16;76482.88;;;-144.48;30.33
68758;BME280;55747;51.998;4.466;2022-08-01T13:10:43;76466.25;;;-144.48;29.78
68758;BME280;55747;51.998;4.466;2022-08-01T13:13:09;76584.69;;;-144.48;31.53
68758;BME280;55747;51.998;4.466;2022-08-01T13:15:36;76667.81;;;-144.48;32.55
68758;BME280;55747;51.998;4.466;2022-08-01T13:18:25;76636.63;;;-144.48;34.88
68758;BME280;55747;51.998;4.466;2022-08-01T13:21:14;76642.88;;;-144.48;34.36